createdAt,value
2023-03-05T11:55:18.238Z,50.64
2023-03-05T11:57:56.920Z,55.91
2023-03-05T12:00:38.060Z,59.19
2023-03-05T12:03:15.688Z,61.12
2023-03-05T12:05:51.651Z,63.47
2023-03-05T12:08:30.320Z,65.51
2023-03-05T12:11:10.842Z,69.18
2023-03-05T12:13:49.683Z,70.49
2023-03-05T12:16:29.712Z,67.19
2023-03-05T12:19:28.667Z,64.11
2023-03-05T12:22:01.126Z,62.15
2023-03-05T12:24:42.326Z,61.18
2023-03-05T12:27:19.762Z,62.40
2023-03-05T12:29:54.824Z,59.75
2023-03-05T12:33:11.102Z,57.50
2023-03-05T12:35:44.253Z,56.43
2023-03-05T12:38:32.469Z,56.74
2023-03-05T12:41:46.587Z,54.48
2023-03-05T12:44:24.507Z,55.94
2023-03-05T12:47:23.818Z,54.58
2023-03-05T12:49:56.875Z,55.41
2023-03-05T12:52:35.679Z,54.05
2023-03-05T12:55:25.896Z,55.74
2023-03-05T12:58:04.271Z,56.77
2023-03-05T13:32:28.916Z,43.52
2023-03-05T13:35:03.224Z,50.05
2023-03-05T13:37:37.718Z,57.67
2023-03-05T13:40:24.029Z,56.38
2023-03-05T13:42:57.074Z,56.99
2023-03-05T13:45:32.232Z,59.97
2023-03-05T13:48:10.624Z,62.79
2023-03-05T13:50:43.768Z,62.83
2023-03-05T13:53:19.601Z,63.36
2023-03-05T13:55:53.295Z,62.88
2023-03-05T13:58:47.744Z,62.98
2023-03-05T14:01:31.064Z,65.14
2023-03-05T14:04:10.930Z,64.41
2023-03-05T14:06:49.688Z,64.04
2023-03-05T14:10:00.180Z,65.53
2023-03-05T14:12:38.059Z,66.32
2023-03-05T14:15:24.736Z,66.95
2023-03-05T14:18:21.352Z,66.36
2023-03-05T14:21:06.572Z,65.90
2023-03-05T14:23:43.228Z,66.75
2023-03-05T14:26:26.906Z,68.61
2023-03-05T14:29:02.461Z,70.25
2023-03-05T14:31:41.996Z,67.58
2023-03-05T14:34:25.077Z,66.84
2023-03-05T14:36:59.919Z,68.24
2023-03-05T14:39:35.234Z,68.46
2023-03-05T14:42:39.181Z,67.11
2023-03-05T14:45:17.452Z,67.22
2023-03-05T14:47:49.219Z,67.30
2023-03-05T14:50:22.744Z,67.48
2023-03-05T14:52:56.556Z,66.95
2023-03-05T14:55:32.017Z,67.37
2023-03-05T14:58:07.912Z,68.00
2023-03-05T15:00:41.795Z,68.38
2023-03-05T15:03:14.576Z,68.48
2023-03-05T15:05:51.133Z,66.83
2023-03-05T15:08:29.337Z,67.27
2023-03-05T15:11:03.671Z,66.36
2023-03-05T15:13:37.689Z,68.44
2023-03-05T15:16:10.865Z,65.77
2023-03-05T15:18:41.901Z,65.73
2023-03-05T15:21:14.724Z,66.50
2023-03-05T15:23:47.762Z,67.32
2023-03-05T15:26:19.234Z,67.96
2023-03-05T15:28:52.936Z,66.33
2023-03-05T15:31:25.026Z,67.11
2023-03-05T15:33:56.175Z,67.16
2023-03-05T15:36:27.800Z,67.58
2023-03-05T15:38:59.140Z,68.30
2023-03-05T15:41:30.795Z,68.34
2023-03-05T15:44:05.200Z,68.02
2023-03-05T15:46:38.485Z,68.42
2023-03-05T15:49:09.763Z,68.05
2023-03-05T15:51:41.531Z,68.07
2023-03-05T15:54:13.733Z,68.33
2023-03-05T15:56:45.570Z,68.32
2023-03-05T15:59:20.400Z,68.59
2023-03-05T16:01:54.733Z,67.81
2023-03-05T16:04:25.941Z,67.76
2023-03-05T16:06:59.165Z,70.32
2023-03-05T16:09:35.333Z,69.23
2023-03-05T16:12:10.465Z,69.41
2023-03-05T16:14:45.279Z,69.64
2023-03-05T16:17:18.431Z,69.64
2023-03-05T16:19:53.466Z,70.91
2023-03-05T16:22:25.082Z,71.54
2023-03-05T16:24:57.203Z,69.72
2023-03-05T16:27:29.312Z,69.09
2023-03-05T16:30:03.464Z,69.51
2023-03-05T16:32:35.965Z,69.45
2023-03-05T16:35:09.016Z,69.65
2023-03-05T16:37:41.859Z,70.58
2023-03-05T16:40:15.604Z,70.56
2023-03-05T16:42:47.733Z,70.54
2023-03-05T16:45:22.507Z,70.99
2023-03-05T16:47:54.956Z,70.65
2023-03-05T16:50:26.488Z,71.18
2023-03-05T16:52:58.536Z,71.30
2023-03-05T16:55:30.335Z,71.64
2023-03-05T16:58:02.357Z,71.39
2023-03-05T17:00:36.743Z,71.63
2023-03-05T17:03:08.937Z,71.76
2023-03-05T17:05:41.336Z,71.73
2023-03-05T17:08:13.308Z,72.31
2023-03-05T17:10:46.927Z,72.08
2023-03-05T17:13:18.957Z,72.31
2023-03-05T17:15:56.263Z,72.37
2023-03-05T17:18:29.760Z,72.45
2023-03-05T17:21:01.330Z,72.29
2023-03-05T17:23:33.624Z,72.36
2023-03-05T17:26:08.186Z,73.10
2023-03-05T17:28:40.931Z,72.56
2023-03-05T17:31:17.653Z,73.10
2023-03-05T17:33:51.212Z,73.33
2023-03-05T17:36:24.546Z,73.57
2023-03-05T17:38:57.108Z,73.34
2023-03-05T17:41:28.716Z,73.35
2023-03-05T17:44:00.592Z,73.99
2023-03-05T17:46:35.037Z,73.95
2023-03-05T17:49:07.263Z,74.24
2023-03-05T17:51:40.707Z,74.09
2023-03-05T17:54:12.548Z,73.45
2023-03-05T17:56:44.811Z,74.63
2023-03-05T17:59:16.850Z,75.07
2023-03-05T18:01:51.172Z,75.34
2023-03-05T18:04:23.228Z,75.47
2023-03-05T18:06:55.048Z,74.81
2023-03-05T18:09:27.566Z,75.02
2023-03-05T18:11:59.779Z,75.30
2023-03-05T18:14:31.743Z,74.87
2023-03-05T18:17:05.921Z,74.99
2023-03-05T18:19:38.099Z,74.58
2023-03-05T18:22:09.680Z,73.29
2023-03-05T18:24:41.702Z,73.64
2023-03-05T18:27:13.324Z,73.43
2023-03-05T18:29:45.406Z,74.23
2023-03-05T18:32:20.279Z,74.71
2023-03-05T18:34:52.372Z,73.82
2023-03-05T18:37:23.790Z,74.64
2023-03-05T18:39:58.227Z,74.71
2023-03-05T18:42:29.951Z,75.02
2023-03-05T18:45:02.425Z,75.12
2023-03-05T18:47:36.907Z,75.17
2023-03-05T18:50:10.822Z,75.25
2023-03-05T18:52:42.746Z,74.68
2023-03-05T18:55:19.904Z,74.11
2023-03-05T18:57:52.049Z,74.71
2023-03-05T19:00:27.152Z,74.09
2023-03-05T19:03:03.788Z,74.02
2023-03-05T19:05:36.331Z,74.48
2023-03-05T19:08:11.194Z,74.42
2023-03-05T19:10:43.621Z,74.03
2023-03-05T19:13:28.445Z,74.73
2023-03-05T19:16:01.214Z,75.30
2023-03-05T19:18:40.151Z,76.77
2023-03-05T19:21:11.924Z,77.24
2023-03-05T19:23:43.415Z,77.06
2023-03-05T19:26:15.181Z,77.54
2023-03-05T19:28:46.508Z,77.84
2023-03-05T19:31:19.045Z,78.99
2023-03-05T19:33:53.181Z,80.31
2023-03-05T19:36:25.357Z,81.27
2023-03-05T19:38:59.123Z,80.95
2023-03-05T19:41:30.752Z,81.86
2023-03-05T19:44:02.428Z,81.92
2023-03-05T19:50:00.314Z,82.52
2023-03-05T19:52:33.393Z,82.56
2023-03-05T19:55:05.242Z,82.49
2023-03-05T19:57:37.636Z,83.30
2023-03-05T20:00:11.391Z,83.76
2023-03-05T20:02:43.944Z,84.91
2023-03-05T20:05:18.965Z,85.22
2023-03-05T20:07:51.306Z,85.58
2023-03-05T20:10:23.485Z,85.00
2023-03-05T20:12:58.037Z,85.61
2023-03-05T20:15:30.616Z,85.73
2023-03-05T20:18:02.965Z,86.46
2023-03-05T20:20:45.115Z,86.94
2023-03-05T20:23:19.561Z,87.33
2023-03-05T20:26:12.780Z,87.53
2023-03-05T20:28:44.884Z,87.72
2023-03-05T20:31:16.125Z,87.69
2023-03-05T20:33:47.834Z,87.90
2023-03-05T20:36:22.403Z,86.78
2023-03-05T20:38:55.371Z,86.84
2023-03-05T20:41:27.240Z,86.74
2023-03-05T20:43:59.074Z,86.66
2023-03-05T20:46:32.768Z,86.95
2023-03-05T20:49:07.060Z,87.19
2023-03-05T20:51:41.316Z,87.50
2023-03-05T20:54:15.901Z,87.10
2023-03-05T20:56:48.157Z,86.65
2023-03-05T20:59:23.636Z,87.74
2023-03-05T21:01:55.108Z,88.02
2023-03-05T21:04:26.731Z,88.16
2023-03-05T21:07:00.556Z,88.77
2023-03-05T21:09:32.437Z,89.38
2023-03-05T21:12:04.285Z,90.67
2023-03-05T21:14:38.517Z,89.85
2023-03-05T21:17:10.981Z,90.29
2023-03-05T21:19:43.077Z,92.19
2023-03-05T21:22:17.214Z,93.63
2023-03-05T21:25:02.362Z,94.12
2023-03-05T21:27:34.010Z,93.89
2023-03-05T21:30:06.115Z,94.33
2023-03-05T21:32:37.469Z,95.54
2023-03-05T21:35:09.901Z,96.03
2023-03-05T21:37:44.640Z,97.29
2023-03-05T21:40:19.695Z,97.71
2023-03-05T21:42:51.141Z,98.69
2023-03-05T21:45:24.663Z,99.62
2023-03-05T21:47:56.298Z,100.00
2023-03-05T21:50:29.554Z,100.00
2023-03-05T21:53:04.544Z,100.00
2023-03-05T21:55:45.773Z,99.84
2023-03-05T21:58:18.831Z,100.00
2023-03-05T22:00:50.832Z,100.00
2023-03-05T22:03:22.637Z,100.00
2023-03-05T22:05:54.894Z,100.00
2023-03-05T22:08:29.933Z,100.00
2023-03-05T22:11:01.846Z,100.00
2023-03-05T22:13:33.776Z,100.00
2023-03-05T22:16:05.449Z,100.00
2023-03-05T22:18:37.270Z,100.00
2023-03-05T22:21:20.456Z,100.00
2023-03-05T22:23:57.349Z,100.00
2023-03-05T22:26:37.242Z,100.00
2023-03-05T22:29:13.360Z,100.00
2023-03-05T22:31:45.585Z,100.00
2023-03-05T22:34:17.347Z,100.00
2023-03-05T22:36:49.561Z,100.00
2023-03-05T22:39:23.781Z,100.00
2023-03-05T22:41:55.779Z,100.00
2023-03-05T22:44:27.442Z,100.00
2023-03-05T22:46:59.495Z,100.00
2023-03-05T22:49:30.884Z,100.00
2023-03-05T22:52:02.917Z,100.00
2023-03-05T22:54:37.204Z,100.00
2023-03-05T22:57:10.479Z,100.00
2023-03-05T22:59:42.074Z,100.00
2023-03-05T23:02:14.259Z,100.00
2023-03-05T23:04:53.483Z,100.00
2023-03-05T23:07:27.767Z,100.00
2023-03-05T23:10:04.202Z,100.00
2023-03-05T23:12:40.418Z,100.00
2023-03-05T23:15:15.724Z,100.00
2023-03-05T23:17:48.646Z,100.00
2023-03-05T23:20:22.489Z,100.00
2023-03-05T23:22:56.392Z,100.00
2023-03-05T23:25:33.690Z,100.00
2023-03-05T23:28:06.766Z,100.00
2023-03-05T23:30:40.866Z,100.00
2023-03-05T23:33:18.404Z,100.00
2023-03-05T23:35:55.303Z,100.00
2023-03-05T23:38:29.108Z,100.00
2023-03-05T23:41:04.040Z,100.00
2023-03-05T23:43:36.583Z,100.00
2023-03-05T23:46:14.175Z,100.00
2023-03-05T23:48:46.913Z,100.00
2023-03-05T23:51:19.456Z,100.00
2023-03-05T23:53:51.898Z,100.00
2023-03-05T23:56:26.821Z,100.00
2023-03-05T23:59:00.901Z,100.00
